Time,TemperatureF,DewpointF,PressureIn,WindDirection,WindDirectionDegrees,WindSpeedMPH,WindSpeedGustMPH,Humidity,HourlyPrecipIn,Conditions,Clouds,dailyrainin,SoftwareType,DateUTC
2013-05-04 00:00:00,46.2,45.9,29.95,NE,51,9.0,17.0,99,0.00,,,-99.99,Weather View 32 v60,2013-05-04 05:00:00,
2013-05-04 00:15:00,46.5,46.2,29.94,North,4,7.0,17.0,99,0.00,,,-99.99,Weather View 32 v60,2013-05-04 05:15:00,
2013-05-04 00:30:00,46.9,46.6,29.94,NE,46,6.0,17.0,99,0.00,,,-99.99,Weather View 32 v60,2013-05-04 05:30:00,
2013-05-04 00:45:00,47.1,46.8,29.94,NNE,14,4.0,17.0,99,0.00,,,-99.99,Weather View 32 v60,2013-05-04 05:45:00,
2013-05-04 01:00:00,47.4,47.1,29.94,ENE,64,3.0,16.0,99,0.00,,,-99.99,Weather View 32 v60,2013-05-04 06:00:00,
2013-05-04 01:15:00,47.8,47.8,29.94,NE,52,5.0,16.0,100,0.00,,,-99.99,Weather View 32 v60,2013-05-04 06:15:00,
2013-05-04 01:30:00,47.9,47.6,29.94,NNE,28,3.0,14.0,99,0.00,,,-99.99,Weather View 32 v60,2013-05-04 06:30:00,
2013-05-04 01:45:00,48.5,48.5,29.94,ENE,60,7.0,12.0,100,0.00,,,-99.99,Weather View 32 v60,2013-05-04 06:45:00,
2013-05-04 02:00:00,48.8,48.8,29.94,NE,50,5.0,11.0,100,0.00,,,-99.99,Weather View 32 v60,2013-05-04 07:00:00,
2013-05-04 02:15:00,49.4,49.4,29.97,East,100,8.0,13.0,100,0.00,,,-99.99,Weather View 32 v60,2013-05-04 07:15:00,
2013-05-04 02:30:00,49.3,49.3,29.96,ENE,61,7.0,13.0,100,0.00,,,-99.99,Weather View 32 v60,2013-05-04 07:30:00,
2013-05-04 02:45:00,48.9,48.6,29.95,ENE,67,10.0,13.0,99,0.00,,,-99.99,Weather View 32 v60,2013-05-04 07:45:00,
2013-05-04 03:00:00,48.9,48.6,29.95,NE,47,7.0,13.0,99,0.00,,,-99.99,Weather View 32 v60,2013-05-04 08:00:00,
2013-05-04 03:15:00,49.3,48.8,29.95,NE,54,6.0,13.0,98,0.00,,,-99.99,Weather View 32 v60,2013-05-04 08:15:00,
2013-05-04 03:30:00,49.4,48.9,29.95,ENE,57,10.0,17.0,98,0.00,,,-99.99,Weather View 32 v60,2013-05-04 08:30:00,
2013-05-04 03:45:00,49.4,48.9,29.94,NE,51,4.0,17.0,98,0.00,,,-99.99,Weather View 32 v60,2013-05-04 08:45:00,
2013-05-04 04:00:00,49.9,49.1,29.94,ENE,72,10.0,19.0,97,0.00,,,-99.99,Weather View 32 v60,2013-05-04 09:00:00,
2013-05-04 04:15:00,50.3,49.5,29.94,NNW,345,5.0,19.0,97,0.00,,,-99.99,Weather View 32 v60,2013-05-04 09:15:00,
2013-05-04 04:30:00,50.0,49.2,29.94,NE,36,6.0,19.0,97,0.00,,,-99.99,Weather View 32 v60,2013-05-04 09:30:00,
2013-05-04 04:45:00,49.7,48.6,29.95,NE,48,5.0,19.0,96,0.00,,,-99.99,Weather View 32 v60,2013-05-04 09:45:00,
2013-05-04 05:00:00,49.5,48.4,29.95,ENE,66,5.0,17.0,96,0.00,,,-99.99,Weather View 32 v60,2013-05-04 10:00:00,
2013-05-04 05:15:00,50.3,49.5,29.95,ENE,67,6.0,17.0,97,0.00,,,-99.99,Weather View 32 v60,2013-05-04 10:15:00,
2013-05-04 05:30:00,50.8,49.4,29.95,NNE,33,8.0,14.0,95,0.00,,,-99.99,Weather View 32 v60,2013-05-04 10:30:00,
2013-05-04 05:45:00,49.3,47.9,29.96,NNE,30,5.0,14.0,95,0.00,,,-99.99,Weather View 32 v60,2013-05-04 10:45:00,
2013-05-04 06:00:00,49.1,48.0,29.96,North,8,7.0,14.0,96,0.00,,,-99.99,Weather View 32 v60,2013-05-04 11:00:00,
2013-05-04 06:15:00,49.3,48.2,29.96,NNE,26,5.0,14.0,96,0.00,,,-99.99,Weather View 32 v60,2013-05-04 11:15:00,
2013-05-04 06:30:00,48.8,47.7,29.96,NNW,338,6.0,14.0,96,0.00,,,-99.99,Weather View 32 v60,2013-05-04 11:30:00,
2013-05-04 06:45:00,48.5,47.4,29.96,NE,46,9.0,17.0,96,0.00,,,-99.99,Weather View 32 v60,2013-05-04 11:45:00,
2013-05-04 07:00:00,48.6,47.5,29.96,NE,46,12.0,17.0,96,0.00,,,-99.99,Weather View 32 v60,2013-05-04 12:00:00,
2013-05-04 07:15:00,49.1,48.0,29.97,NNE,31,14.0,19.0,96,0.00,,,-99.99,Weather View 32 v60,2013-05-04 12:15:00,
2013-05-04 07:30:00,49.4,48.0,29.97,ENE,57,5.0,19.0,95,0.00,,,-99.99,Weather View 32 v60,2013-05-04 12:30:00,
2013-05-04 07:45:00,49.6,48.2,29.97,ENE,62,10.0,19.0,95,0.00,,,-99.99,Weather View 32 v60,2013-05-04 12:45:00,
2013-05-04 08:00:00,50.0,48.6,29.98,North,7,3.0,19.0,95,0.00,,,-99.99,Weather View 32 v60,2013-05-04 13:00:00,
2013-05-04 08:15:00,51.8,50.7,29.98,NNW,346,2.0,19.0,96,0.00,,,-99.99,Weather View 32 v60,2013-05-04 13:15:00,
2013-05-04 08:30:00,52.2,50.2,29.99,NE,54,5.0,17.0,93,0.00,,,-99.99,Weather View 32 v60,2013-05-04 13:30:00,
2013-05-04 08:45:00,52.8,50.5,29.99,ENE,57,8.0,17.0,92,0.00,,,-99.99,Weather View 32 v60,2013-05-04 13:45:00,
2013-05-04 09:00:00,53.7,51.1,30.00,NE,47,7.0,17.0,91,0.00,,,-99.99,Weather View 32 v60,2013-05-04 14:00:00,
2013-05-04 09:15:00,55.0,51.8,30.00,East,80,8.0,17.0,89,0.00,,,-99.99,Weather View 32 v60,2013-05-04 14:15:00,
2013-05-04 09:30:00,55.8,52.6,30.00,NE,52,15.0,17.0,89,0.00,,,-99.99,Weather View 32 v60,2013-05-04 14:30:00,
2013-05-04 09:45:00,56.1,52.6,30.01,NE,46,8.0,17.0,88,0.00,,,-99.99,Weather View 32 v60,2013-05-04 14:45:00,
2013-05-04 10:00:00,57.7,53.8,30.01,East,90,2.0,17.0,87,0.00,,,-99.99,Weather View 32 v60,2013-05-04 15:00:00,
2013-05-04 10:15:00,58.5,54.6,30.01,East,95,8.0,17.0,87,0.00,,,-99.99,Weather View 32 v60,2013-05-04 15:15:00,
2013-05-04 10:30:00,60.0,55.1,30.01,NE,38,6.0,17.0,84,0.00,,,-99.99,Weather View 32 v60,2013-05-04 15:30:00,
2013-05-04 10:45:00,60.4,54.9,30.01,NE,42,7.0,14.0,82,0.00,,,-99.99,Weather View 32 v60,2013-05-04 15:45:00,
2013-05-04 11:00:00,60.4,54.5,30.02,East,90,6.0,14.0,81,0.00,,,-99.99,Weather View 32 v60,2013-05-04 16:00:00,
2013-05-04 11:05:00,60.4,54.5,30.02,East,90,6.0,14.0,81,0.00,,,-99.99,Weather View 32 v60,2013-05-04 16:05:00,
2013-05-04 11:15:00,60.5,56.3,30.02,ESE,109,9.0,17.0,86,0.00,,,-99.99,Weather View 32 v60,2013-05-04 16:15:00,
2013-05-04 11:30:00,62.2,57.9,30.02,ENE,67,7.0,19.0,86,0.00,,,-99.99,Weather View 32 v60,2013-05-04 16:30:00,
2013-05-04 11:45:00,63.0,57.7,30.01,ENE,58,8.0,19.0,83,0.00,,,-99.99,Weather View 32 v60,2013-05-04 16:45:00,
2013-05-04 12:00:00,63.9,57.6,30.01,ENE,57,11.0,19.0,80,0.00,,,-99.99,Weather View 32 v60,2013-05-04 17:00:00,
2013-05-04 12:06:00,63.9,57.6,30.01,ENE,57,11.0,19.0,80,0.00,,,-99.99,Weather View 32 v60,2013-05-04 17:06:00,
2013-05-04 12:15:00,64.2,57.9,30.00,NNE,16,5.0,20.0,80,0.00,,,-99.99,Weather View 32 v60,2013-05-04 17:15:00,
2013-05-04 12:30:00,64.8,57.8,30.01,ENE,64,12.0,20.0,78,0.00,,,-99.99,Weather View 32 v60,2013-05-04 17:30:00,
2013-05-04 12:45:00,63.7,57.0,30.00,ESE,111,5.0,24.0,79,0.00,,,-99.99,Weather View 32 v60,2013-05-04 17:45:00,
2013-05-04 13:00:00,65.1,58.4,30.00,ESE,119,6.0,24.0,79,0.00,,,-99.99,Weather View 32 v60,2013-05-04 18:00:00,
2013-05-04 13:07:00,65.1,58.4,30.00,ESE,119,6.0,24.0,79,0.00,,,-99.99,Weather View 32 v60,2013-05-04 18:07:00,
2013-05-04 13:15:00,65.1,57.3,30.00,NE,55,12.0,24.0,76,0.00,,,-99.99,Weather View 32 v60,2013-05-04 18:15:00,
2013-05-04 13:30:00,65.3,56.0,30.00,East,79,12.0,24.0,72,0.00,,,-99.99,Weather View 32 v60,2013-05-04 18:30:00,
2013-05-04 13:45:00,64.8,55.5,30.00,NE,47,6.0,21.0,72,0.00,,,-99.99,Weather View 32 v60,2013-05-04 18:45:00,
2013-05-04 14:00:00,65.5,55.8,29.99,ENE,60,9.0,22.0,71,0.00,,,-99.99,Weather View 32 v60,2013-05-04 19:00:00,
2013-05-04 14:07:00,65.5,55.8,29.99,ENE,60,9.0,22.0,71,0.00,,,-99.99,Weather View 32 v60,2013-05-04 19:07:00,
2013-05-04 14:15:00,65.6,55.9,29.98,ENE,61,16.0,22.0,71,0.00,,,-99.99,Weather View 32 v60,2013-05-04 19:15:00,
2013-05-04 14:30:00,66.0,55.5,29.98,ENE,62,6.0,22.0,69,0.00,,,-99.99,Weather View 32 v60,2013-05-04 19:30:00,
2013-05-04 14:45:00,66.0,55.1,29.98,NE,38,7.0,22.0,68,0.00,,,-99.99,Weather View 32 v60,2013-05-04 19:45:00,
2013-05-04 15:00:00,66.1,55.2,29.98,NE,40,15.0,22.0,68,0.00,,,-99.99,Weather View 32 v60,2013-05-04 20:00:00,
2013-05-04 15:08:00,66.1,55.2,29.98,NE,40,15.0,22.0,68,0.00,,,-99.99,Weather View 32 v60,2013-05-04 20:08:00,
2013-05-04 15:15:00,66.3,55.0,29.98,NE,43,8.0,22.0,67,0.00,,,-99.99,Weather View 32 v60,2013-05-04 20:15:00,
2013-05-04 15:30:00,65.6,55.5,29.97,NE,54,13.0,22.0,70,0.00,,,-99.99,Weather View 32 v60,2013-05-04 20:30:00,
2013-05-04 15:45:00,66.3,55.4,29.97,NE,55,13.0,22.0,68,0.00,,,-99.99,Weather View 32 v60,2013-05-04 20:45:00,
2013-05-04 16:00:00,66.8,55.5,29.97,North,3,6.0,21.0,67,0.00,,,-99.99,Weather View 32 v60,2013-05-04 21:00:00,
2013-05-04 16:08:00,66.8,55.5,29.97,North,3,6.0,21.0,67,0.00,,,-99.99,Weather View 32 v60,2013-05-04 21:08:00,
2013-05-04 16:15:00,67.8,56.0,29.96,NE,54,8.0,20.0,66,0.00,,,-99.99,Weather View 32 v60,2013-05-04 21:15:00,
2013-05-04 16:30:00,68.5,52.1,29.96,ENE,66,15.0,23.0,56,0.00,,,-99.99,Weather View 32 v60,2013-05-04 21:30:00,
2013-05-04 16:45:00,67.8,53.8,29.97,ENE,66,18.0,25.0,61,0.00,,,-99.99,Weather View 32 v60,2013-05-04 21:45:00,
2013-05-04 17:00:00,67.7,54.2,29.97,ENE,57,8.0,27.0,62,0.00,,,-99.99,Weather View 32 v60,2013-05-04 22:00:00,
2013-05-04 17:09:00,67.7,54.2,29.97,ENE,57,8.0,27.0,62,0.00,,,-99.99,Weather View 32 v60,2013-05-04 22:09:00,
2013-05-04 17:15:00,67.8,53.8,29.97,NE,48,9.0,27.0,61,0.00,,,-99.99,Weather View 32 v60,2013-05-04 22:15:00,
2013-05-04 17:30:00,67.6,53.2,29.97,NE,45,6.0,27.0,60,0.00,,,-99.99,Weather View 32 v60,2013-05-04 22:30:00,
2013-05-04 17:45:00,67.2,52.8,29.97,East,83,12.0,27.0,60,0.00,,,-99.99,Weather View 32 v60,2013-05-04 22:45:00,
2013-05-04 18:00:00,66.8,53.8,29.98,NE,44,15.0,20.0,63,0.00,,,-99.99,Weather View 32 v60,2013-05-04 23:00:00,
2013-05-04 18:09:00,66.8,53.8,29.98,NE,44,15.0,20.0,63,0.00,,,-99.99,Weather View 32 v60,2013-05-04 23:09:00,
2013-05-04 18:15:00,66.7,54.5,29.98,ESE,103,5.0,20.0,65,0.00,,,-99.99,Weather View 32 v60,2013-05-04 23:15:00,
2013-05-04 18:30:00,66.6,54.4,29.98,NE,53,9.0,20.0,65,0.00,,,-99.99,Weather View 32 v60,2013-05-04 23:30:00,
2013-05-04 18:45:00,66.5,54.8,29.97,NNE,15,3.0,20.0,66,0.00,,,-99.99,Weather View 32 v60,2013-05-04 23:45:00,
2013-05-04 19:00:00,66.5,53.5,29.97,ENE,73,5.0,18.0,63,0.00,,,-99.99,Weather View 32 v60,2013-05-05 00:00:00,
2013-05-04 19:15:00,66.5,52.6,29.98,NNE,29,8.0,12.0,61,0.00,,,-99.99,Weather View 32 v60,2013-05-05 00:15:00,
2013-05-04 19:30:00,66.2,52.3,29.99,ENE,66,5.0,12.0,61,0.00,,,-99.99,Weather View 32 v60,2013-05-05 00:30:00,
2013-05-04 19:45:00,65.6,52.2,29.99,ENE,73,7.0,12.0,62,0.00,,,-99.99,Weather View 32 v60,2013-05-05 00:45:00,
2013-05-04 20:00:00,65.2,50.9,30.00,SE,131,4.0,13.0,60,0.00,,,-99.99,Weather View 32 v60,2013-05-05 01:00:00,
2013-05-04 20:15:00,64.6,50.8,30.00,ESE,104,4.0,13.0,61,0.00,,,-99.99,Weather View 32 v60,2013-05-05 01:15:00,
2013-05-04 20:30:00,64.0,51.1,30.01,ESE,107,6.0,13.0,63,0.00,,,-99.99,Weather View 32 v60,2013-05-05 01:30:00,
2013-05-04 20:45:00,63.1,50.3,30.01,East,101,3.0,13.0,63,0.00,,,-99.99,Weather View 32 v60,2013-05-05 01:45:00,
2013-05-04 21:00:00,62.7,49.9,30.02,East,86,1.0,11.0,63,0.00,,,-99.99,Weather View 32 v60,2013-05-05 02:00:00,
2013-05-04 21:15:00,62.6,49.8,30.02,East,84,4.0,9.0,63,0.00,,,-99.99,Weather View 32 v60,2013-05-05 02:15:00,
2013-05-04 21:30:00,62.4,49.2,30.02,ENE,68,5.0,9.0,62,0.00,,,-99.99,Weather View 32 v60,2013-05-05 02:30:00,
2013-05-04 21:45:00,62.0,48.8,30.02,ESE,121,4.0,8.0,62,0.00,,,-99.99,Weather View 32 v60,2013-05-05 02:45:00,
2013-05-04 22:00:00,62.2,49.0,30.02,ENE,70,3.0,9.0,62,0.00,,,-99.99,Weather View 32 v60,2013-05-05 03:00:00,
2013-05-04 22:15:00,62.1,48.5,30.02,ENE,74,4.0,9.0,61,0.00,,,-99.99,Weather View 32 v60,2013-05-05 03:15:00,
2013-05-04 22:30:00,62.1,48.5,30.01,ENE,57,2.0,9.0,61,0.00,,,-99.99,Weather View 32 v60,2013-05-05 03:30:00,
2013-05-04 22:45:00,61.6,48.4,30.01,ENE,65,4.0,9.0,62,0.00,,,-99.99,Weather View 32 v60,2013-05-05 03:45:00,
2013-05-04 23:00:00,61.6,48.4,30.01,ENE,57,4.0,9.0,62,0.00,,,-99.99,Weather View 32 v60,2013-05-05 04:00:00,
2013-05-04 23:15:00,60.2,48.8,30.02,SE,142,4.0,13.0,66,0.00,,,-99.99,Weather View 32 v60,2013-05-05 04:15:00,
2013-05-04 23:30:00,60.1,49.5,30.02,ESE,102,5.0,13.0,68,0.00,,,-99.99,Weather View 32 v60,2013-05-05 04:30:00,
2013-05-04 23:45:00,60.1,49.5,30.03,SE,138,3.0,13.0,68,0.00,,,-99.99,Weather View 32 v60,2013-05-05 04:45:00,